Lomond, Canada
Current Conditions -  °F | °C
As of 7:00 AM on Sunday 26 Oct 2014 (Local Time) from CYDF Reporting Station
Rain Showers Rain Showers  
Wind Chill:   Ceiling: 1300
Heat Index:   Visibility: 10mi
Dew Point:   Wind: 12mph
Humidity: 93%   Direction: 40°NE
Pressure: 29.61"   Gusts: NA
Location:  49.45°N, 57.93°W
Report Text: CYDF 260900Z 04010KT 10SM -SHRA BKN013 OVC039 04/03 A2961 RMK SC5SC3 SLP027
Loading
Personal Weather Stations






























Interactive Weather Map
Tropical Storm Tracking
New forecast layout! Learn more

10-Day Weather Forecast

Advertisements
Track Severe Weather on mobile